createdAt,value
2019-01-11T00:01:56.369Z,77922.86
2019-01-11T00:04:22.282Z,77922.86
2019-01-11T00:06:50.181Z,77921.86
2019-01-11T00:09:17.081Z,77915.86
2019-01-11T00:11:42.971Z,77912.86
2019-01-11T00:14:08.911Z,77919.86
2019-01-11T00:16:34.839Z,77914.86
2019-01-11T00:19:06.955Z,77914.86
2019-01-11T00:21:28.450Z,77912.86
2019-01-11T00:23:54.751Z,77913.86
2019-01-11T00:26:20.654Z,77909.85
2019-01-11T00:28:46.558Z,77918.86
2019-01-11T00:31:12.467Z,77912.86
2019-01-11T00:33:38.405Z,77904.84
2019-01-11T00:36:04.298Z,77902.84
2019-01-11T00:38:30.196Z,77902.84
2019-01-11T00:40:56.094Z,77907.84
2019-01-11T00:43:22.044Z,77913.86
2019-01-11T00:45:49.374Z,77913.86
2019-01-11T00:48:15.350Z,77901.84
2019-01-11T00:50:41.260Z,77905.84
2019-01-11T00:53:07.162Z,77898.84
2019-01-11T00:55:33.068Z,77903.84
2019-01-11T00:57:58.945Z,77910.85
2019-01-11T01:00:24.901Z,77903.84
2019-01-11T01:02:50.856Z,77903.84
2019-01-11T01:05:17.165Z,77897.84
2019-01-11T01:07:43.118Z,77899.84
2019-01-11T01:10:09.344Z,77900.84
2019-01-11T01:12:35.262Z,77901.84
2019-01-11T01:15:01.212Z,77897.84
2019-01-11T01:17:27.152Z,77904.84
2019-01-11T01:19:53.063Z,77900.84
2019-01-11T01:22:25.084Z,77898.84
2019-01-11T01:24:51.149Z,77901.84
2019-01-11T01:27:17.296Z,77891.83
2019-01-11T01:29:43.233Z,77887.83
2019-01-11T01:32:09.184Z,77887.83
2019-01-11T01:34:35.452Z,77881.82
2019-01-11T01:37:01.350Z,77880.82
2019-01-11T01:39:27.291Z,77885.83
2019-01-11T01:41:53.218Z,77880.82
2019-01-11T01:44:19.150Z,77877.81
2019-01-11T01:46:47.860Z,77875.81
2019-01-11T01:49:13.811Z,77871.81
2019-01-11T01:51:39.711Z,77877.81
2019-01-11T01:54:05.629Z,77876.81
2019-01-11T01:56:31.538Z,77882.82
2019-01-11T01:58:57.446Z,77881.82
2019-01-11T02:01:23.348Z,77875.81
2019-01-11T02:03:49.254Z,77868.80
2019-01-11T02:06:15.212Z,77867.80
2019-01-11T02:08:41.133Z,77865.80
2019-01-11T02:11:07.100Z,77868.80
2019-01-11T02:13:33.390Z,77869.80
2019-01-11T02:15:59.309Z,77869.80
2019-01-11T02:18:25.239Z,77868.80
2019-01-11T02:20:51.194Z,77865.80
2019-01-11T02:23:17.097Z,77868.80
2019-01-11T02:25:46.170Z,77870.81
2019-01-11T02:28:10.702Z,77863.80
2019-01-11T02:30:37.511Z,77860.80
2019-01-11T02:33:03.472Z,77859.80
2019-01-11T02:35:29.392Z,77854.79
2019-01-11T02:37:55.301Z,77853.79
2019-01-11T02:40:21.257Z,77857.80
2019-01-11T02:42:47.323Z,77856.79
2019-01-11T02:45:14.530Z,77857.80
2019-01-11T02:47:40.435Z,77845.78
2019-01-11T02:50:07.340Z,77839.77
2019-01-11T02:52:33.245Z,77840.77
2019-01-11T02:54:59.144Z,77840.77
2019-01-11T02:57:25.053Z,77842.78
2019-01-11T02:59:50.963Z,77835.77
2019-01-11T03:02:16.871Z,77833.77
2019-01-11T03:04:42.781Z,77831.77
2019-01-11T03:07:08.726Z,77831.77
2019-01-11T03:09:34.617Z,77828.77
2019-01-11T03:12:00.951Z,77821.75
2019-01-11T03:14:26.907Z,77815.75
2019-01-11T03:16:52.822Z,77803.73
2019-01-11T03:19:21.050Z,77799.73
2019-01-11T03:21:46.944Z,77800.73
2019-01-11T03:24:13.257Z,77801.73
2019-01-11T03:26:39.169Z,77793.72
2019-01-11T03:29:05.082Z,77791.72
2019-01-11T03:31:32.895Z,77788.72
2019-01-11T03:33:58.811Z,77788.72
2019-01-11T03:36:24.712Z,77790.72
2019-01-11T03:38:50.621Z,77790.72
2019-01-11T03:41:16.563Z,77781.71
2019-01-11T03:43:45.256Z,77777.70
2019-01-11T03:46:11.206Z,77779.71
2019-01-11T03:48:37.084Z,77777.70
2019-01-11T03:51:03.347Z,77774.70
2019-01-11T03:53:29.584Z,77779.71
2019-01-11T03:55:55.549Z,77782.71
2019-01-11T03:58:21.458Z,77777.70
2019-01-11T04:00:47.360Z,77776.70
2019-01-11T04:03:13.303Z,77779.71
2019-01-11T04:05:39.249Z,77779.71
2019-01-11T04:08:05.149Z,77777.70
2019-01-11T04:10:31.060Z,77770.70
2019-01-11T04:12:59.984Z,77765.69
2019-01-11T04:15:25.893Z,77755.68
2019-01-11T04:17:53.749Z,77755.68
2019-01-11T04:20:19.686Z,77761.69
2019-01-11T04:22:53.476Z,77755.68
2019-01-11T04:25:21.342Z,77752.68
2019-01-11T04:27:47.335Z,77748.67
2019-01-11T04:30:13.778Z,77758.69
2019-01-11T04:32:39.775Z,77752.68
2019-01-11T04:35:05.667Z,77745.67
2019-01-11T04:37:31.979Z,77737.66
2019-01-11T04:39:57.879Z,77737.66
2019-01-11T04:42:23.775Z,77738.66
2019-01-11T04:44:49.690Z,77738.66
2019-01-11T04:47:15.932Z,77734.66
2019-01-11T04:49:42.257Z,77733.66
2019-01-11T04:52:08.166Z,77725.66
2019-01-11T04:54:34.066Z,77719.64
2019-01-11T04:57:00.001Z,77721.64
2019-01-11T04:59:26.265Z,77727.66
2019-01-11T05:01:52.166Z,77728.66
2019-01-11T05:04:19.560Z,77721.64
2019-01-11T05:06:45.522Z,77711.64
2019-01-11T05:09:11.429Z,77703.63
2019-01-11T05:11:37.395Z,77700.63
2019-01-11T05:14:03.335Z,77697.63
2019-01-11T05:16:29.237Z,77694.62
2019-01-11T05:18:55.796Z,77695.63
2019-01-11T05:21:21.699Z,77692.62
2019-01-11T05:23:47.609Z,77686.61
2019-01-11T05:26:13.514Z,77691.62
2019-01-11T05:28:39.425Z,77693.62
2019-01-11T05:31:05.331Z,77679.60
2019-01-11T05:33:31.608Z,77679.60
2019-01-11T05:35:57.515Z,77681.61
2019-01-11T05:38:23.413Z,77673.59
2019-01-11T05:40:49.321Z,77663.59
2019-01-11T05:43:15.544Z,77653.58
2019-01-11T05:45:41.446Z,77659.58
2019-01-11T05:48:07.722Z,77653.58
2019-01-11T05:50:33.623Z,77659.58
2019-01-11T05:52:59.524Z,77651.58
2019-01-11T05:55:44.075Z,77648.57
2019-01-11T05:58:11.888Z,77650.57
2019-01-11T06:00:37.785Z,77648.57
2019-01-11T06:03:04.110Z,77641.56
2019-01-11T06:05:30.013Z,77647.56
2019-01-11T06:07:55.913Z,77644.56
2019-01-11T06:10:21.820Z,77650.57
2019-01-11T06:12:49.500Z,77648.57
2019-01-11T06:15:15.458Z,77647.56
2019-01-11T06:17:41.347Z,77644.56
2019-01-11T06:20:09.789Z,77642.56
2019-01-11T06:22:35.702Z,77641.56
2019-01-11T06:25:01.633Z,77639.56
2019-01-11T06:27:27.544Z,77635.55
2019-01-11T06:29:53.463Z,77639.56
2019-01-11T06:32:19.460Z,77632.55
2019-01-11T06:34:45.408Z,77629.55
2019-01-11T06:37:11.345Z,77629.55
2019-01-11T06:39:37.254Z,77629.55
2019-01-11T06:42:05.122Z,77631.55
2019-01-11T06:44:31.018Z,77630.55
2019-01-11T06:46:56.974Z,77624.55
2019-01-11T06:49:23.183Z,77623.55
2019-01-11T06:51:49.090Z,77629.55
2019-01-11T06:54:14.999Z,77625.55
2019-01-11T06:56:40.898Z,77628.55
2019-01-11T06:59:08.720Z,77624.55
2019-01-11T07:01:34.624Z,77619.54
2019-01-11T07:04:00.670Z,77621.55
2019-01-11T07:06:26.683Z,77618.54
2019-01-11T07:08:52.949Z,77618.54
2019-01-11T07:11:21.623Z,77617.54
2019-01-11T07:13:47.529Z,77606.53
2019-01-11T07:16:13.565Z,77611.53
2019-01-11T07:18:39.469Z,77605.53
2019-01-11T07:21:05.453Z,77609.53
2019-01-11T07:23:31.381Z,77615.53
2019-01-11T07:25:57.288Z,77607.53
2019-01-11T07:28:23.557Z,77609.53
2019-01-11T07:30:57.019Z,77611.53
2019-01-11T07:33:23.212Z,77604.52
2019-01-11T07:35:53.653Z,77611.53
2019-01-11T07:38:19.671Z,77610.53
2019-01-11T07:40:45.906Z,77602.52
2019-01-11T07:43:11.828Z,77612.53
2019-01-11T07:45:38.118Z,77604.52
2019-01-11T07:48:04.019Z,77610.53
2019-01-11T07:50:29.966Z,77609.53
2019-01-11T07:52:55.858Z,77599.52
2019-01-11T07:55:22.141Z,77599.52
2019-01-11T07:57:49.215Z,77603.52
2019-01-11T08:00:15.083Z,77604.52
2019-01-11T08:02:41.289Z,77603.52
2019-01-11T08:05:07.173Z,77595.52
2019-01-11T08:07:33.086Z,77599.52
2019-01-11T08:09:59.088Z,77593.52
2019-01-11T08:12:25.034Z,77589.52
2019-01-11T08:14:50.976Z,77590.52
2019-01-11T08:17:17.279Z,77594.52
2019-01-11T08:19:43.230Z,77585.51
2019-01-11T08:22:11.412Z,77584.50
2019-01-11T08:24:39.225Z,77582.50
2019-01-11T08:27:05.171Z,77576.50
2019-01-11T08:29:31.069Z,77567.48
2019-01-11T08:31:57.027Z,77561.48
2019-01-11T08:34:22.935Z,77563.48
2019-01-11T08:36:52.050Z,77560.48
2019-01-11T08:39:17.959Z,77559.48
2019-01-11T08:41:44.281Z,77560.48
2019-01-11T08:44:10.728Z,77563.48
2019-01-11T08:46:37.082Z,77563.48
2019-01-11T08:49:02.979Z,77559.48
2019-01-11T08:51:28.886Z,77554.47
2019-01-11T08:53:54.813Z,77547.47
2019-01-11T08:56:21.007Z,77549.47
2019-01-11T08:58:47.733Z,77547.47
2019-01-11T09:01:13.669Z,77541.46
2019-01-11T09:03:39.575Z,77540.46
2019-01-11T09:06:05.521Z,77540.46
2019-01-11T09:08:31.438Z,77538.45
2019-01-11T09:10:57.391Z,77532.45
2019-01-11T09:13:23.946Z,77530.45
2019-01-11T09:15:49.820Z,77534.45
2019-01-11T09:18:16.212Z,77527.45
2019-01-11T09:20:42.121Z,77526.45
2019-01-11T09:23:08.004Z,77525.45
2019-01-11T09:25:33.964Z,77525.45
2019-01-11T09:27:59.862Z,77518.44
2019-01-11T09:30:25.763Z,77512.44
2019-01-11T09:32:51.665Z,77517.44
2019-01-11T09:35:17.560Z,77515.44
2019-01-11T09:37:43.461Z,77512.44
2019-01-11T09:40:09.376Z,77515.44
2019-01-11T09:42:35.278Z,77513.44
2019-01-11T09:45:01.594Z,77507.42
2019-01-11T09:47:27.538Z,77503.42
2019-01-11T09:49:53.475Z,77496.42
2019-01-11T09:52:19.375Z,77506.42
2019-01-11T09:54:46.083Z,77502.42
2019-01-11T09:57:12.023Z,77497.42
2019-01-11T09:59:38.392Z,77499.42
2019-01-11T10:02:06.203Z,77489.41
2019-01-11T10:04:34.015Z,77482.41
2019-01-11T10:07:01.878Z,77483.41
2019-01-11T10:09:28.162Z,77479.40
2019-01-11T10:11:54.139Z,77486.41
2019-01-11T10:14:20.049Z,77477.39
2019-01-11T10:16:46.429Z,77471.39
2019-01-11T10:19:12.321Z,77467.39
2019-01-11T10:21:38.261Z,77461.38
2019-01-11T10:24:04.197Z,77461.38
2019-01-11T10:26:30.362Z,77453.38
2019-01-11T10:28:56.558Z,77444.36
2019-01-11T10:31:25.309Z,77440.36
2019-01-11T10:33:51.207Z,77449.37
2019-01-11T10:36:17.144Z,77441.36
2019-01-11T10:38:43.444Z,77437.36
2019-01-11T10:41:09.349Z,77438.36
2019-01-11T10:43:35.269Z,77430.35
2019-01-11T10:46:03.079Z,77428.34
2019-01-11T10:48:28.989Z,77427.34
2019-01-11T10:50:54.890Z,77423.34
2019-01-11T10:53:20.791Z,77415.34
2019-01-11T10:55:46.707Z,77413.34
2019-01-11T10:58:12.615Z,77411.33
2019-01-11T11:00:38.522Z,77403.33
2019-01-11T11:03:04.431Z,77396.32
2019-01-11T11:05:32.452Z,77397.32
2019-01-11T11:07:58.357Z,77391.31
2019-01-11T11:10:24.264Z,77387.31
2019-01-11T11:12:50.177Z,77389.31
2019-01-11T11:15:16.488Z,77389.31
2019-01-11T11:17:42.410Z,77392.31
2019-01-11T11:20:09.810Z,77381.30
2019-01-11T11:22:35.719Z,77365.29
2019-01-11T11:25:02.466Z,77366.29
2019-01-11T11:27:28.367Z,77371.30
2019-01-11T11:29:54.431Z,77365.29
2019-01-11T11:32:25.203Z,77365.29
2019-01-11T11:34:51.119Z,77364.28
2019-01-11T11:37:18.387Z,77430.35
2019-01-11T11:39:44.403Z,77492.41
2019-01-11T11:42:10.709Z,77509.43
2019-01-11T11:44:36.641Z,77543.46
2019-01-11T11:47:02.672Z,77447.37
2019-01-11T11:49:28.582Z,77392.31
2019-01-11T11:51:54.491Z,77379.30
2019-01-11T11:54:20.428Z,77361.28
2019-01-11T11:56:46.743Z,77356.28
2019-01-11T11:59:12.844Z,77350.27
2019-01-11T12:01:38.913Z,77346.27
2019-01-11T12:04:04.811Z,77342.27
2019-01-11T12:06:30.705Z,77330.25
2019-01-11T12:08:56.618Z,77324.25
2019-01-11T12:11:26.016Z,77318.25
2019-01-11T12:13:51.927Z,77313.23
2019-01-11T12:16:17.848Z,77307.23
2019-01-11T12:18:43.725Z,77303.23
2019-01-11T12:21:09.687Z,77303.23
2019-01-11T12:23:35.600Z,77289.22
2019-01-11T12:26:01.493Z,77281.20
2019-01-11T12:28:27.424Z,77280.20
2019-01-11T12:30:53.381Z,77275.20
2019-01-11T12:33:19.339Z,77274.20
2019-01-11T12:35:45.404Z,77272.20
2019-01-11T12:38:13.757Z,77271.20
2019-01-11T12:40:39.223Z,77267.20
2019-01-11T12:43:05.129Z,77259.19
2019-01-11T12:45:31.031Z,77251.18
2019-01-11T12:47:56.932Z,77244.17
2019-01-11T12:50:24.788Z,77256.19
2019-01-11T12:52:50.792Z,77250.18
2019-01-11T12:55:16.704Z,77251.18
2019-01-11T12:57:42.607Z,77251.18
2019-01-11T13:00:10.573Z,77245.17
2019-01-11T13:02:36.478Z,77239.17
2019-01-11T13:05:03.521Z,77237.17
2019-01-11T13:07:29.491Z,77235.17
2019-01-11T13:09:55.456Z,77227.16
2019-01-11T13:12:21.351Z,77223.16
2019-01-11T13:14:47.240Z,77224.16
2019-01-11T13:17:13.549Z,77227.16
2019-01-11T13:19:39.446Z,77217.16
2019-01-11T13:22:05.404Z,77220.16
2019-01-11T13:24:31.357Z,77205.14
2019-01-11T13:26:57.439Z,77207.14
2019-01-11T13:29:23.336Z,77203.14
2019-01-11T13:31:49.603Z,77209.14
2019-01-11T13:34:15.509Z,77203.14
2019-01-11T13:36:41.449Z,77193.13
2019-01-11T13:39:09.316Z,77199.14
2019-01-11T13:41:35.216Z,77191.13
2019-01-11T13:44:01.529Z,77198.13
2019-01-11T13:46:27.439Z,77201.14
2019-01-11T13:48:53.376Z,77197.13
2019-01-11T13:51:24.843Z,77190.13
2019-01-11T13:53:51.273Z,77189.13
2019-01-11T13:56:17.158Z,77185.13
2019-01-11T13:58:43.225Z,77179.11
2019-01-11T14:01:09.257Z,77184.13
2019-01-11T14:03:35.483Z,77182.12
2019-01-11T14:06:01.381Z,77185.13
2019-01-11T14:08:27.295Z,77182.12
2019-01-11T14:10:53.197Z,77173.11
2019-01-11T14:13:19.099Z,77171.11
2019-01-11T14:15:45.003Z,77162.10
2019-01-11T14:18:10.901Z,77159.09
2019-01-11T14:20:36.855Z,77147.09
2019-01-11T14:23:02.807Z,77147.09
2019-01-11T14:25:28.750Z,77148.09
2019-01-11T14:27:54.649Z,77146.09
2019-01-11T14:30:20.955Z,77154.09
2019-01-11T14:32:46.858Z,77149.09
2019-01-11T14:35:12.770Z,77150.09
2019-01-11T14:37:39.027Z,77147.09
2019-01-11T14:40:06.833Z,77155.09
2019-01-11T14:42:32.738Z,77163.10
2019-01-11T14:44:58.830Z,77159.09
2019-01-11T14:47:24.742Z,77147.09
2019-01-11T14:49:50.971Z,77154.09
2019-01-11T14:52:20.535Z,77156.09
2019-01-11T14:54:44.940Z,77147.09
2019-01-11T14:57:11.160Z,77145.09
2019-01-11T14:59:37.433Z,77147.09
2019-01-11T15:02:03.342Z,77142.08
2019-01-11T15:04:29.236Z,77147.09
2019-01-11T15:06:55.278Z,77147.09
2019-01-11T15:09:21.604Z,77139.08
2019-01-11T15:11:47.553Z,77139.08
2019-01-11T15:14:13.991Z,77134.08
2019-01-11T15:16:39.888Z,77141.08
2019-01-11T15:19:06.162Z,77139.08
2019-01-11T15:21:32.059Z,77130.08
2019-01-11T15:23:57.973Z,77127.07
2019-01-11T15:26:23.902Z,77123.06
2019-01-11T15:28:49.803Z,77124.06
2019-01-11T15:31:15.706Z,77122.06
2019-01-11T15:33:41.620Z,77121.06
2019-01-11T15:36:07.532Z,77113.06
2019-01-11T15:38:33.453Z,77114.06
2019-01-11T15:40:59.348Z,77119.06
2019-01-11T15:43:25.258Z,77111.05
2019-01-11T15:45:54.879Z,77101.05
2019-01-11T15:48:25.433Z,77093.04
2019-01-11T15:50:52.007Z,77090.03
2019-01-11T15:53:17.903Z,77093.04
2019-01-11T15:55:44.162Z,77092.04
2019-01-11T15:58:10.256Z,77085.03
2019-01-11T16:00:40.279Z,77083.03
2019-01-11T16:03:06.185Z,77078.03
2019-01-11T16:05:32.485Z,77093.04
2019-01-11T16:07:58.414Z,77089.03
2019-01-11T16:10:24.346Z,77080.03
2019-01-11T16:12:50.271Z,77080.03
2019-01-11T16:15:36.360Z,77070.02
2019-01-11T16:18:04.169Z,77072.02
2019-01-11T16:20:30.075Z,77071.02
2019-01-11T16:22:55.986Z,77073.02
2019-01-11T16:25:22.002Z,77071.02
2019-01-11T16:27:48.158Z,77059.01
2019-01-11T16:30:14.459Z,77064.02
2019-01-11T16:32:40.356Z,77064.02
2019-01-11T16:35:06.409Z,77063.02
2019-01-11T16:37:32.310Z,77063.02
2019-01-11T16:39:58.216Z,77063.02
2019-01-11T16:42:24.105Z,77063.02
2019-01-11T16:44:50.313Z,77057.01
2019-01-11T16:47:16.614Z,77058.01
2019-01-11T16:49:42.919Z,77063.02
2019-01-11T16:52:15.169Z,77064.02
2019-01-11T16:54:37.141Z,77066.02
2019-01-11T16:57:03.428Z,77063.02
2019-01-11T16:59:32.082Z,77062.02
2019-01-11T17:01:58.028Z,77062.02
2019-01-11T17:04:23.939Z,77058.01
2019-01-11T17:06:49.892Z,77063.02
2019-01-11T17:09:15.816Z,77061.02
2019-01-11T17:11:42.127Z,77062.02
2019-01-11T17:14:08.102Z,77065.02
2019-01-11T17:16:33.992Z,77063.02
2019-01-11T17:19:00.385Z,77059.01
2019-01-11T17:21:26.275Z,77067.02
2019-01-11T17:23:54.889Z,77066.02
2019-01-11T17:26:20.815Z,77071.02
2019-01-11T17:28:46.730Z,77074.02
2019-01-11T17:31:12.680Z,77069.02
2019-01-11T17:33:38.567Z,77075.02
2019-01-11T17:36:04.489Z,77067.02
2019-01-11T17:38:30.435Z,77070.02
2019-01-11T17:40:56.334Z,77065.02
2019-01-11T17:43:23.938Z,77059.01
2019-01-11T17:45:49.908Z,77059.01
2019-01-11T17:48:15.797Z,77059.01
2019-01-11T17:50:41.712Z,77058.01
2019-01-11T17:53:07.968Z,77055.01
2019-01-11T17:55:33.863Z,77059.01
2019-01-11T17:57:59.783Z,77059.01
2019-01-11T18:00:25.804Z,77055.01
2019-01-11T18:02:51.711Z,77052.00
2019-01-11T18:05:17.610Z,77050.00
2019-01-11T18:07:43.871Z,77055.01
2019-01-11T18:10:10.168Z,77059.01
2019-01-11T18:12:36.206Z,77060.02
2019-01-11T18:15:02.556Z,77060.02
2019-01-11T18:17:28.467Z,77059.01
2019-01-11T18:19:54.373Z,77058.01
2019-01-11T18:22:20.278Z,77060.02
2019-01-11T18:24:46.230Z,77059.01
2019-01-11T18:27:12.136Z,77054.00
2019-01-11T18:29:38.033Z,77057.01
2019-01-11T18:32:03.999Z,77056.01
2019-01-11T18:34:29.884Z,77047.00
2019-01-11T18:36:55.791Z,77044.00
2019-01-11T18:39:21.856Z,77047.00
2019-01-11T18:41:48.222Z,77042.00
2019-01-11T18:44:14.106Z,77043.00
2019-01-11T18:46:40.010Z,77049.00
2019-01-11T18:49:05.917Z,77052.00
2019-01-11T18:51:31.809Z,77049.00
2019-01-11T18:53:58.440Z,77049.00
2019-01-11T18:56:24.352Z,77053.00
2019-01-11T18:58:50.265Z,77056.01
2019-01-11T19:01:16.226Z,77041.00
2019-01-11T19:03:42.145Z,77058.01
2019-01-11T19:06:08.066Z,77060.02
2019-01-11T19:08:34.167Z,77063.02
2019-01-11T19:11:00.061Z,77067.02
2019-01-11T19:13:25.962Z,77063.02
2019-01-11T19:15:54.177Z,77056.01
2019-01-11T19:18:20.141Z,77063.02
2019-01-11T19:20:46.051Z,77062.02
2019-01-11T19:23:12.360Z,77060.02
2019-01-11T19:25:38.314Z,77063.02
2019-01-11T19:28:04.254Z,77056.01
2019-01-11T19:30:30.170Z,77060.02
2019-01-11T19:32:56.107Z,77055.01
2019-01-11T19:35:22.875Z,77052.00
2019-01-11T19:37:48.799Z,77056.01
2019-01-11T19:40:18.044Z,77052.00
2019-01-11T19:42:43.981Z,77059.01
2019-01-11T19:45:10.908Z,77052.00
2019-01-11T19:47:36.867Z,77060.02
2019-01-11T19:50:04.772Z,77056.01
2019-01-11T19:52:30.732Z,77053.00
2019-01-11T19:54:57.226Z,77056.01
2019-01-11T19:57:23.127Z,77055.01
2019-01-11T19:59:49.080Z,77055.01
2019-01-11T20:02:14.983Z,77060.02
2019-01-11T20:04:40.965Z,77052.00
2019-01-11T20:07:06.925Z,77052.00
2019-01-11T20:09:32.826Z,77049.00
2019-01-11T20:11:58.883Z,77053.00
2019-01-11T20:14:24.815Z,77061.02
2019-01-11T20:16:50.746Z,77059.01
2019-01-11T20:19:16.994Z,77060.02
2019-01-11T20:21:42.904Z,77054.00
2019-01-11T20:24:08.806Z,77057.01
2019-01-11T20:26:35.113Z,77055.01
2019-01-11T20:29:02.289Z,77069.02
2019-01-11T20:31:28.191Z,77059.01
2019-01-11T20:33:54.183Z,77051.00
2019-01-11T20:36:20.523Z,77051.00
2019-01-11T20:38:46.604Z,77052.00
2019-01-11T20:41:14.009Z,77046.00
2019-01-11T20:43:39.919Z,77051.00
2019-01-11T20:46:05.840Z,77059.01
2019-01-11T20:48:32.225Z,77056.01
2019-01-11T20:51:00.189Z,77055.01
2019-01-11T20:53:26.070Z,77046.00
2019-01-11T20:55:52.025Z,77050.00
2019-01-11T20:58:17.977Z,77054.00
2019-01-11T21:00:43.867Z,77052.00
2019-01-11T21:03:09.907Z,77061.02
2019-01-11T21:05:35.884Z,77062.02
2019-01-11T21:08:01.812Z,77060.02
2019-01-11T21:10:27.762Z,77060.02
2019-01-11T21:12:53.764Z,77058.01
2019-01-11T21:15:20.955Z,77071.02
2019-01-11T21:17:46.850Z,77070.02
2019-01-11T21:20:14.161Z,77070.02
2019-01-11T21:22:40.157Z,77072.02
2019-01-11T21:25:07.527Z,77073.02
2019-01-11T21:27:33.422Z,77079.03
2019-01-11T21:29:59.342Z,77080.03
2019-01-11T21:32:25.598Z,77069.02
2019-01-11T21:34:51.657Z,77063.02
2019-01-11T21:37:20.715Z,77068.02
2019-01-11T21:39:46.643Z,77073.02
2019-01-11T21:42:18.911Z,77079.03
2019-01-11T21:44:40.521Z,77078.03
2019-01-11T21:47:06.461Z,77078.03
2019-01-11T21:49:32.388Z,77085.03
2019-01-11T21:51:58.407Z,77083.03
2019-01-11T21:54:24.400Z,77083.03
2019-01-11T21:56:50.644Z,77092.04
2019-01-11T21:59:17.275Z,77093.04
2019-01-11T22:01:43.289Z,77091.03
2019-01-11T22:04:09.813Z,77092.04
2019-01-11T22:06:36.094Z,77090.03
2019-01-11T22:09:03.500Z,77081.03
2019-01-11T22:11:29.406Z,77085.03
2019-01-11T22:13:55.948Z,77080.03
2019-01-11T22:16:21.832Z,77088.03
2019-01-11T22:18:48.102Z,77085.03
2019-01-11T22:21:14.621Z,77091.03
2019-01-11T22:23:40.997Z,77091.03
2019-01-11T22:26:07.179Z,77099.05
2019-01-11T22:28:33.068Z,77101.05
2019-01-11T22:30:59.091Z,77100.05
2019-01-11T22:33:24.983Z,77097.05
2019-01-11T22:35:51.455Z,77102.05
2019-01-11T22:38:17.350Z,77087.03
2019-01-11T22:40:43.292Z,77095.05
2019-01-11T22:43:09.580Z,77094.05
2019-01-11T22:45:35.955Z,77091.03
2019-01-11T22:48:02.058Z,77097.05
2019-01-11T22:50:28.376Z,77100.05
2019-01-11T22:52:54.450Z,77102.05
2019-01-11T22:55:20.585Z,77092.04
2019-01-11T22:57:46.652Z,77101.05
2019-01-11T23:00:22.159Z,77097.05
2019-01-11T23:02:48.935Z,77103.05
2019-01-11T23:05:15.372Z,77105.05
2019-01-11T23:07:42.456Z,77106.05
2019-01-11T23:10:16.458Z,77116.06
2019-01-11T23:12:43.963Z,77111.05
2019-01-11T23:15:11.791Z,77103.05
2019-01-11T23:17:39.626Z,77100.05
2019-01-11T23:20:07.439Z,77099.05
2019-01-11T23:22:33.502Z,77107.05
2019-01-11T23:24:59.603Z,77110.05
2019-01-11T23:27:25.522Z,77111.05
2019-01-11T23:29:51.430Z,77115.06
2019-01-11T23:32:17.869Z,77116.06
2019-01-11T23:34:44.131Z,77111.05
2019-01-11T23:37:10.064Z,77117.06
2019-01-11T23:39:35.961Z,77123.06
2019-01-11T23:42:01.870Z,77128.07
2019-01-11T23:44:27.781Z,77131.08
2019-01-11T23:46:53.870Z,77134.08
2019-01-11T23:49:20.170Z,77139.08
2019-01-11T23:51:46.097Z,77131.08
2019-01-11T23:54:12.005Z,77141.08
2019-01-11T23:56:37.906Z,77144.09
2019-01-11T23:59:03.814Z,77137.08
